sensor_id;sensor_type;location;lat;lon;timestamp;pressure;altitude;pressure_sealevel;temperature;humidity
68634;BME280;55625;47.072;22.192;2023-06-10T00:01:52;99301.50;;;16.00;100.00
68634;BME280;55625;47.072;22.192;2023-06-10T00:04:21;99297.34;;;16.01;100.00
68634;BME280;55625;47.072;22.192;2023-06-10T00:06:47;99304.16;;;16.04;100.00
68634;BME280;55625;47.072;22.192;2023-06-10T00:09:15;99303.63;;;16.05;100.00
68634;BME280;55625;47.072;22.192;2023-06-10T00:11:41;99301.06;;;16.07;100.00
68634;BME280;55625;47.072;22.192;2023-06-10T00:14:08;99305.00;;;16.10;100.00
68634;BME280;55625;47.072;22.192;2023-06-10T00:16:35;99298.47;;;16.09;100.00
68634;BME280;55625;47.072;22.192;2023-06-10T00:19:05;99304.78;;;16.13;100.00
68634;BME280;55625;47.072;22.192;2023-06-10T00:21:33;99297.47;;;16.12;100.00
68634;BME280;55625;47.072;22.192;2023-06-10T00:24:07;99295.63;;;16.09;100.00
68634;BME280;55625;47.072;22.192;2023-06-10T00:26:38;99298.91;;;16.02;100.00
68634;BME280;55625;47.072;22.192;2023-06-10T00:29:05;99299.13;;;15.99;100.00
68634;BME280;55625;47.072;22.192;2023-06-10T00:31:31;99297.56;;;15.98;100.00
68634;BME280;55625;47.072;22.192;2023-06-10T00:33:57;99293.91;;;15.97;100.00
68634;BME280;55625;47.072;22.192;2023-06-10T00:36:24;99292.63;;;15.98;100.00
68634;BME280;55625;47.072;22.192;2023-06-10T00:38:50;99296.78;;;15.97;100.00
68634;BME280;55625;47.072;22.192;2023-06-10T00:41:16;99294.72;;;15.98;100.00
68634;BME280;55625;47.072;22.192;2023-06-10T00:43:42;99295.72;;;15.95;100.00
68634;BME280;55625;47.072;22.192;2023-06-10T00:46:08;99307.16;;;15.95;100.00
68634;BME280;55625;47.072;22.192;2023-06-10T00:48:34;99299.13;;;15.99;100.00
68634;BME280;55625;47.072;22.192;2023-06-10T00:51:00;99300.16;;;15.96;100.00
68634;BME280;55625;47.072;22.192;2023-06-10T00:53:26;99291.56;;;15.96;100.00
68634;BME280;55625;47.072;22.192;2023-06-10T00:55:53;99294.41;;;15.96;100.00
68634;BME280;55625;47.072;22.192;2023-06-10T00:58:19;99294.41;;;15.96;100.00
68634;BME280;55625;47.072;22.192;2023-06-10T01:00:45;99287.69;;;15.99;100.00
68634;BME280;55625;47.072;22.192;2023-06-10T01:03:12;99290.28;;;15.97;100.00
68634;BME280;55625;47.072;22.192;2023-06-10T01:05:38;99286.34;;;15.94;100.00
68634;BME280;55625;47.072;22.192;2023-06-10T01:08:27;99293.81;;;15.92;100.00
68634;BME280;55625;47.072;22.192;2023-06-10T01:11:01;99293.81;;;15.92;100.00
68634;BME280;55625;47.072;22.192;2023-06-10T01:13:28;99294.84;;;15.89;100.00
68634;BME280;55625;47.072;22.192;2023-06-10T01:15:58;99295.84;;;15.86;100.00
68634;BME280;55625;47.072;22.192;2023-06-10T01:18:30;99291.69;;;15.87;100.00
68634;BME280;55625;47.072;22.192;2023-06-10T01:20:56;99297.97;;;15.91;100.00
68634;BME280;55625;47.072;22.192;2023-06-10T01:23:23;99293.81;;;15.92;100.00
68634;BME280;55625;47.072;22.192;2023-06-10T01:26:02;99299.88;;;15.94;100.00
68634;BME280;55625;47.072;22.192;2023-06-10T01:28:52;99301.16;;;15.93;100.00
68634;BME280;55625;47.072;22.192;2023-06-10T01:34:00;99301.16;;;15.93;100.00
68634;BME280;55625;47.072;22.192;2023-06-10T01:36:28;99299.66;;;15.97;100.00
68634;BME280;55625;47.072;22.192;2023-06-10T01:38:55;99301.16;;;15.93;100.00
68634;BME280;55625;47.072;22.192;2023-06-10T01:41:22;99293.81;;;15.92;100.00
68634;BME280;55625;47.072;22.192;2023-06-10T01:43:49;99304.47;;;15.91;100.00
68634;BME280;55625;47.072;22.192;2023-06-10T01:46:16;99296.41;;;15.90;100.00
68634;BME280;55625;47.072;22.192;2023-06-10T01:48:45;99293.75;;;15.86;100.00
68634;BME280;55625;47.072;22.192;2023-06-10T01:51:11;99300.56;;;15.89;100.00
68634;BME280;55625;47.072;22.192;2023-06-10T01:53:36;99303.41;;;15.89;100.00
68634;BME280;55625;47.072;22.192;2023-06-10T01:56:02;99293.47;;;15.84;100.00
68634;BME280;55625;47.072;22.192;2023-06-10T01:58:28;99296.84;;;15.82;100.00
68634;BME280;55625;47.072;22.192;2023-06-10T02:00:54;99289.03;;;15.83;100.00
68634;BME280;55625;47.072;22.192;2023-06-10T02:03:19;99303.06;;;15.81;100.00
68634;BME280;55625;47.072;22.192;2023-06-10T02:05:45;99302.50;;;15.77;100.00
68634;BME280;55625;47.072;22.192;2023-06-10T02:08:11;99298.56;;;15.74;100.00
68634;BME280;55625;47.072;22.192;2023-06-10T02:10:37;99299.06;;;15.73;100.00
68634;BME280;55625;47.072;22.192;2023-06-10T02:13:02;99283.69;;;15.70;100.00
68634;BME280;55625;47.072;22.192;2023-06-10T02:15:28;99294.84;;;15.68;100.00
68634;BME280;55625;47.072;22.192;2023-06-10T02:17:54;99292.75;;;15.69;100.00
68634;BME280;55625;47.072;22.192;2023-06-10T02:20:21;99296.91;;;15.68;100.00
68634;BME280;55625;47.072;22.192;2023-06-10T02:22:47;99301.28;;;15.63;100.00
68634;BME280;55625;47.072;22.192;2023-06-10T02:25:13;99302.56;;;15.62;100.00
68634;BME280;55625;47.072;22.192;2023-06-10T02:27:38;99305.09;;;15.60;100.00
68634;BME280;55625;47.072;22.192;2023-06-10T02:30:05;99306.41;;;15.59;100.00
68634;BME280;55625;47.072;22.192;2023-06-10T02:32:31;99299.88;;;15.59;100.00
68634;BME280;55625;47.072;22.192;2023-06-10T02:34:57;99301.66;;;15.56;100.00
68634;BME280;55625;47.072;22.192;2023-06-10T02:37:23;99303.22;;;15.57;100.00
68634;BME280;55625;47.072;22.192;2023-06-10T02:39:49;99307.69;;;15.58;100.00
68634;BME280;55625;47.072;22.192;2023-06-10T02:42:15;99309.94;;;15.54;100.00
68634;BME280;55625;47.072;22.192;2023-06-10T02:44:40;99307.38;;;15.56;100.00
68634;BME280;55625;47.072;22.192;2023-06-10T02:47:06;99307.88;;;15.54;100.00
68634;BME280;55625;47.072;22.192;2023-06-10T02:49:32;99301.06;;;15.52;100.00
68634;BME280;55625;47.072;22.192;2023-06-10T02:51:58;99309.38;;;15.50;100.00
68634;BME280;55625;47.072;22.192;2023-06-10T02:54:24;99307.50;;;15.47;100.00
68634;BME280;55625;47.072;22.192;2023-06-10T02:56:51;99302.00;;;15.43;100.00
68634;BME280;55625;47.072;22.192;2023-06-10T02:59:18;99302.50;;;15.42;100.00
68634;BME280;55625;47.072;22.192;2023-06-10T03:01:45;99312.34;;;15.41;100.00
68634;BME280;55625;47.072;22.192;2023-06-10T03:04:11;99308.72;;;15.40;100.00
68634;BME280;55625;47.072;22.192;2023-06-10T03:06:39;99316.22;;;15.38;100.00
68634;BME280;55625;47.072;22.192;2023-06-10T03:09:06;99314.34;;;15.35;100.00
68634;BME280;55625;47.072;22.192;2023-06-10T03:11:35;99323.91;;;15.32;100.00
68634;BME280;55625;47.072;22.192;2023-06-10T03:14:01;99315.03;;;15.30;100.00
68634;BME280;55625;47.072;22.192;2023-06-10T03:16:27;99324.09;;;15.28;100.00
68634;BME280;55625;47.072;22.192;2023-06-10T03:18:53;99324.88;;;15.29;100.00
68634;BME280;55625;47.072;22.192;2023-06-10T03:21:19;99331.91;;;15.28;100.00
68634;BME280;55625;47.072;22.192;2023-06-10T03:23:46;99326.78;;;15.32;100.00
68634;BME280;55625;47.072;22.192;2023-06-10T03:26:12;99333.78;;;15.31;100.00
68634;BME280;55625;47.072;22.192;2023-06-10T03:28:40;99334.47;;;15.26;100.00
68634;BME280;55625;47.072;22.192;2023-06-10T03:31:06;99339.88;;;15.23;100.00
68634;BME280;55625;47.072;22.192;2023-06-10T03:33:31;99344.63;;;15.27;100.00
68634;BME280;55625;47.072;22.192;2023-06-10T03:35:58;99332.09;;;15.24;100.00
68634;BME280;55625;47.072;22.192;2023-06-10T03:38:24;99331.91;;;15.28;100.00
68634;BME280;55625;47.072;22.192;2023-06-10T03:40:50;99330.94;;;15.31;100.00
68634;BME280;55625;47.072;22.192;2023-06-10T03:43:16;99327.56;;;15.32;100.00
68634;BME280;55625;47.072;22.192;2023-06-10T03:45:42;99324.22;;;15.34;100.00
68634;BME280;55625;47.072;22.192;2023-06-10T03:48:08;99328.16;;;15.36;100.00
68634;BME280;55625;47.072;22.192;2023-06-10T03:50:35;99338.81;;;15.36;100.00
68634;BME280;55625;47.072;22.192;2023-06-10T03:53:01;99334.38;;;15.35;100.00
68634;BME280;55625;47.072;22.192;2023-06-10T03:55:27;99335.94;;;15.36;100.00
68634;BME280;55625;47.072;22.192;2023-06-10T03:57:53;99336.03;;;15.41;100.00
68634;BME280;55625;47.072;22.192;2023-06-10T04:00:19;99345.19;;;15.45;100.00
68634;BME280;55625;47.072;22.192;2023-06-10T04:02:47;99331.16;;;15.47;100.00
68634;BME280;55625;47.072;22.192;2023-06-10T04:05:16;99329.09;;;15.48;100.00
68634;BME280;55625;47.072;22.192;2023-06-10T04:07:42;99335.69;;;15.54;100.00
68634;BME280;55625;47.072;22.192;2023-06-10T04:10:10;99335.59;;;15.63;100.00
68634;BME280;55625;47.072;22.192;2023-06-10T04:12:37;99338.91;;;15.76;100.00
68634;BME280;55625;47.072;22.192;2023-06-10T04:15:04;99339.63;;;15.92;100.00
68634;BME280;55625;47.072;22.192;2023-06-10T04:17:30;99344.50;;;16.06;100.00
68634;BME280;55625;47.072;22.192;2023-06-10T04:19:57;99341.50;;;16.15;100.00
68634;BME280;55625;47.072;22.192;2023-06-10T04:22:24;99347.38;;;16.26;100.00
68634;BME280;55625;47.072;22.192;2023-06-10T04:24:50;99340.91;;;16.31;100.00
68634;BME280;55625;47.072;22.192;2023-06-10T04:27:15;99340.41;;;16.33;100.00
68634;BME280;55625;47.072;22.192;2023-06-10T04:29:41;99342.44;;;16.27;100.00
68634;BME280;55625;47.072;22.192;2023-06-10T04:32:07;99345.19;;;16.21;100.00
68634;BME280;55625;47.072;22.192;2023-06-10T04:34:37;99349.63;;;16.22;100.00
68634;BME280;55625;47.072;22.192;2023-06-10T04:37:05;99346.59;;;16.26;100.00
68634;BME280;55625;47.072;22.192;2023-06-10T04:39:32;99344.34;;;16.35;100.00
68634;BME280;55625;47.072;22.192;2023-06-10T04:41:59;99344.34;;;16.35;100.00
68634;BME280;55625;47.072;22.192;2023-06-10T04:44:26;99345.69;;;16.40;100.00
68634;BME280;55625;47.072;22.192;2023-06-10T04:46:51;99343.91;;;16.42;100.00
68634;BME280;55625;47.072;22.192;2023-06-10T04:49:17;99343.34;;;16.38;100.00
68634;BME280;55625;47.072;22.192;2023-06-10T04:51:43;99338.69;;;16.41;100.00
68634;BME280;55625;47.072;22.192;2023-06-10T04:54:09;99343.91;;;16.42;100.00
68634;BME280;55625;47.072;22.192;2023-06-10T04:56:35;99346.03;;;16.48;100.00
68634;BME280;55625;47.072;22.192;2023-06-10T04:59:00;99343.81;;;16.57;100.00
68634;BME280;55625;47.072;22.192;2023-06-10T05:01:26;99340.31;;;16.68;100.00
68634;BME280;55625;47.072;22.192;2023-06-10T05:03:53;99340.69;;;16.81;100.00
68634;BME280;55625;47.072;22.192;2023-06-10T05:06:19;99345.31;;;16.99;100.00
68634;BME280;55625;47.072;22.192;2023-06-10T05:08:44;99341.47;;;17.07;100.00
68634;BME280;55625;47.072;22.192;2023-06-10T05:11:10;99350.34;;;17.10;100.00
68634;BME280;55625;47.072;22.192;2023-06-10T05:13:36;99343.16;;;17.20;100.00
68634;BME280;55625;47.072;22.192;2023-06-10T05:16:02;99342.06;;;17.49;100.00
68634;BME280;55625;47.072;22.192;2023-06-10T05:18:28;99338.38;;;17.80;100.00
68634;BME280;55625;47.072;22.192;2023-06-10T05:20:54;99335.16;;;18.09;100.00
68634;BME280;55625;47.072;22.192;2023-06-10T05:23:20;99334.75;;;18.39;100.00
68634;BME280;55625;47.072;22.192;2023-06-10T05:25:46;99337.13;;;18.57;100.00
68634;BME280;55625;47.072;22.192;2023-06-10T05:28:12;99332.50;;;18.76;98.33
68634;BME280;55625;47.072;22.192;2023-06-10T05:30:38;99329.38;;;18.97;95.53
68634;BME280;55625;47.072;22.192;2023-06-10T05:33:04;99326.78;;;19.21;97.02
68634;BME280;55625;47.072;22.192;2023-06-10T05:35:30;99337.50;;;19.20;96.03
68634;BME280;55625;47.072;22.192;2023-06-10T05:37:56;99341.19;;;18.99;97.16
68634;BME280;55625;47.072;22.192;2023-06-10T05:40:22;99338.00;;;18.80;97.63
68634;BME280;55625;47.072;22.192;2023-06-10T05:42:48;99347.16;;;18.78;96.53
68634;BME280;55625;47.072;22.192;2023-06-10T05:45:14;99340.84;;;18.63;96.01
68634;BME280;55625;47.072;22.192;2023-06-10T05:47:39;99347.31;;;18.52;96.10
68634;BME280;55625;47.072;22.192;2023-06-10T05:50:06;99335.25;;;18.37;97.25
68634;BME280;55625;47.072;22.192;2023-06-10T05:52:36;99341.50;;;18.36;96.72
68634;BME280;55625;47.072;22.192;2023-06-10T05:55:03;99344.94;;;18.40;98.27
68634;BME280;55625;47.072;22.192;2023-06-10T05:57:29;99341.03;;;18.48;99.35
68634;BME280;55625;47.072;22.192;2023-06-10T05:59:55;99339.53;;;18.64;98.64
68634;BME280;55625;47.072;22.192;2023-06-10T06:02:21;99341.94;;;18.88;96.14
68634;BME280;55625;47.072;22.192;2023-06-10T06:04:47;99334.13;;;19.11;94.63
68634;BME280;55625;47.072;22.192;2023-06-10T06:07:13;99340.16;;;19.30;94.22
68634;BME280;55625;47.072;22.192;2023-06-10T06:09:38;99334.91;;;19.56;96.00
68634;BME280;55625;47.072;22.192;2023-06-10T06:12:05;99334.59;;;19.82;92.46
68634;BME280;55625;47.072;22.192;2023-06-10T06:14:37;99331.34;;;20.13;89.30
68634;BME280;55625;47.072;22.192;2023-06-10T06:17:04;99340.16;;;20.38;89.94
68634;BME280;55625;47.072;22.192;2023-06-10T06:19:30;99337.88;;;20.77;88.66
68634;BME280;55625;47.072;22.192;2023-06-10T06:21:56;99336.53;;;20.84;86.95
68634;BME280;55625;47.072;22.192;2023-06-10T06:24:22;99335.81;;;21.14;89.23
68634;BME280;55625;47.072;22.192;2023-06-10T06:26:47;99338.88;;;21.27;85.47
68634;BME280;55625;47.072;22.192;2023-06-10T06:29:13;99340.25;;;21.50;83.71
68634;BME280;55625;47.072;22.192;2023-06-10T06:31:39;99330.25;;;21.51;82.98
68634;BME280;55625;47.072;22.192;2023-06-10T06:34:05;99329.75;;;21.77;81.08
68634;BME280;55625;47.072;22.192;2023-06-10T06:36:31;99322.13;;;22.04;82.20
68634;BME280;55625;47.072;22.192;2023-06-10T06:38:56;99335.63;;;22.39;78.98
68634;BME280;55625;47.072;22.192;2023-06-10T06:41:26;99321.28;;;22.28;79.62
68634;BME280;55625;47.072;22.192;2023-06-10T06:43:54;99326.25;;;22.52;78.00
68634;BME280;55625;47.072;22.192;2023-06-10T06:46:20;99313.34;;;22.72;79.29
68634;BME280;55625;47.072;22.192;2023-06-10T06:48:47;99313.91;;;22.89;73.36
68634;BME280;55625;47.072;22.192;2023-06-10T06:51:12;99317.31;;;23.06;74.44
68634;BME280;55625;47.072;22.192;2023-06-10T06:53:39;99307.16;;;23.32;73.99
68634;BME280;55625;47.072;22.192;2023-06-10T06:56:13;99312.53;;;23.41;75.20
68634;BME280;55625;47.072;22.192;2023-06-10T06:58:39;99316.47;;;23.57;71.90
68634;BME280;55625;47.072;22.192;2023-06-10T07:01:05;99317.06;;;23.68;72.07
68634;BME280;55625;47.072;22.192;2023-06-10T07:03:31;99314.50;;;23.78;71.77
68634;BME280;55625;47.072;22.192;2023-06-10T07:05:57;99308.72;;;23.65;72.21
68634;BME280;55625;47.072;22.192;2023-06-10T07:08:23;99322.13;;;23.49;71.78
68634;BME280;55625;47.072;22.192;2023-06-10T07:10:49;99306.59;;;23.65;72.03
68634;BME280;55625;47.072;22.192;2023-06-10T07:13:15;99313.31;;;24.00;71.31
68634;BME280;55625;47.072;22.192;2023-06-10T07:15:41;99312.53;;;24.39;71.88
68634;BME280;55625;47.072;22.192;2023-06-10T07:18:06;99312.59;;;24.60;67.63
68634;BME280;55625;47.072;22.192;2023-06-10T07:20:32;99315.47;;;24.73;68.98
68634;BME280;55625;47.072;22.192;2023-06-10T07:22:58;99318.22;;;24.92;69.58
68634;BME280;55625;47.072;22.192;2023-06-10T07:25:24;99310.47;;;24.60;66.92
68634;BME280;55625;47.072;22.192;2023-06-10T07:27:50;99317.56;;;23.99;70.76
68634;BME280;55625;47.072;22.192;2023-06-10T07:30:15;99312.06;;;24.08;72.88
68634;BME280;55625;47.072;22.192;2023-06-10T07:32:41;99311.97;;;24.27;73.13
68634;BME280;55625;47.072;22.192;2023-06-10T07:35:10;99314.66;;;24.25;75.01
68634;BME280;55625;47.072;22.192;2023-06-10T07:37:37;99314.50;;;24.17;75.27
68634;BME280;55625;47.072;22.192;2023-06-10T07:40:03;99308.63;;;24.23;71.36
68634;BME280;55625;47.072;22.192;2023-06-10T07:42:30;99307.84;;;23.96;70.92
68634;BME280;55625;47.072;22.192;2023-06-10T07:44:56;99311.44;;;23.89;71.39
68634;BME280;55625;47.072;22.192;2023-06-10T07:47:22;99316.44;;;24.02;72.47
68634;BME280;55625;47.072;22.192;2023-06-10T07:49:48;99304.25;;;24.16;71.94
68634;BME280;55625;47.072;22.192;2023-06-10T07:52:13;99311.75;;;24.25;72.99
68634;BME280;55625;47.072;22.192;2023-06-10T07:54:39;99312.88;;;24.22;73.29
68634;BME280;55625;47.072;22.192;2023-06-10T07:57:06;99302.59;;;24.21;72.31
68634;BME280;55625;47.072;22.192;2023-06-10T07:59:33;99305.50;;;23.95;72.31
68634;BME280;55625;47.072;22.192;2023-06-10T08:01:59;99309.75;;;23.94;72.25
68634;BME280;55625;47.072;22.192;2023-06-10T08:04:25;99308.63;;;23.97;74.08
68634;BME280;55625;47.072;22.192;2023-06-10T08:06:51;99313.53;;;23.89;72.05
68634;BME280;55625;47.072;22.192;2023-06-10T08:09:16;99308.06;;;23.85;72.29
68634;BME280;55625;47.072;22.192;2023-06-10T08:11:45;99311.28;;;24.08;71.07
68634;BME280;55625;47.072;22.192;2023-06-10T08:14:12;99303.25;;;24.54;71.84
68634;BME280;55625;47.072;22.192;2023-06-10T08:16:37;99304.25;;;24.90;71.18
68634;BME280;55625;47.072;22.192;2023-06-10T08:19:03;99299.34;;;25.19;70.18
68634;BME280;55625;47.072;22.192;2023-06-10T08:21:29;99311.19;;;25.42;69.73
68634;BME280;55625;47.072;22.192;2023-06-10T08:23:55;99305.44;;;25.71;68.28
68634;BME280;55625;47.072;22.192;2023-06-10T08:26:21;99304.00;;;25.85;66.50
68634;BME280;55625;47.072;22.192;2023-06-10T08:28:47;99304.94;;;26.08;67.52
68634;BME280;55625;47.072;22.192;2023-06-10T08:31:13;99295.63;;;26.10;64.64
68634;BME280;55625;47.072;22.192;2023-06-10T08:33:38;99292.44;;;26.28;62.69
68634;BME280;55625;47.072;22.192;2023-06-10T08:36:04;99294.47;;;26.41;63.59
68634;BME280;55625;47.072;22.192;2023-06-10T08:38:30;99291.03;;;26.58;64.32
68634;BME280;55625;47.072;22.192;2023-06-10T08:40:59;99296.53;;;26.69;62.57
68634;BME280;55625;47.072;22.192;2023-06-10T08:43:37;99288.59;;;26.77;62.37
68634;BME280;55625;47.072;22.192;2023-06-10T08:46:04;99282.00;;;26.84;61.56
68634;BME280;55625;47.072;22.192;2023-06-10T08:48:35;99285.94;;;26.95;58.87
68634;BME280;55625;47.072;22.192;2023-06-10T08:51:04;99282.97;;;26.87;59.87
68634;BME280;55625;47.072;22.192;2023-06-10T08:53:33;99270.44;;;27.00;61.17
68634;BME280;55625;47.072;22.192;2023-06-10T08:56:03;99278.78;;;27.11;60.75
68634;BME280;55625;47.072;22.192;2023-06-10T08:58:30;99273.94;;;27.06;57.08
68634;BME280;55625;47.072;22.192;2023-06-10T09:00:58;99275.63;;;26.93;52.69
68634;BME280;55625;47.072;22.192;2023-06-10T09:03:25;99269.66;;;26.99;54.94
68634;BME280;55625;47.072;22.192;2023-06-10T09:05:52;99275.09;;;27.10;57.46
68634;BME280;55625;47.072;22.192;2023-06-10T09:08:18;99273.59;;;27.32;57.76
68634;BME280;55625;47.072;22.192;2023-06-10T09:10:44;99269.50;;;27.43;58.54
68634;BME280;55625;47.072;22.192;2023-06-10T09:13:10;99267.53;;;27.45;56.35
68634;BME280;55625;47.072;22.192;2023-06-10T09:15:36;99257.84;;;27.58;57.51
68634;BME280;55625;47.072;22.192;2023-06-10T09:18:02;99255.69;;;27.59;58.01
68634;BME280;55625;47.072;22.192;2023-06-10T09:20:28;99262.09;;;27.80;58.15
68634;BME280;55625;47.072;22.192;2023-06-10T09:22:53;99258.41;;;27.87;57.93
68634;BME280;55625;47.072;22.192;2023-06-10T09:25:19;99251.53;;;28.07;58.00
68634;BME280;55625;47.072;22.192;2023-06-10T09:27:59;99245.13;;;28.17;55.12
68634;BME280;55625;47.072;22.192;2023-06-10T09:30:34;99253.84;;;28.32;58.11
68634;BME280;55625;47.072;22.192;2023-06-10T09:33:13;99246.44;;;28.15;55.10
68634;BME280;55625;47.072;22.192;2023-06-10T09:35:47;99248.88;;;27.48;54.34
68634;BME280;55625;47.072;22.192;2023-06-10T09:38:28;99245.50;;;26.76;57.31
68634;BME280;55625;47.072;22.192;2023-06-10T09:40:55;99251.69;;;26.28;57.20
68634;BME280;55625;47.072;22.192;2023-06-10T09:43:21;99252.13;;;25.96;59.71
68634;BME280;55625;47.072;22.192;2023-06-10T09:45:51;99239.84;;;25.83;60.52
68634;BME280;55625;47.072;22.192;2023-06-10T09:48:19;99238.63;;;26.07;60.90
68634;BME280;55625;47.072;22.192;2023-06-10T09:50:46;99237.44;;;26.02;62.12
68634;BME280;55625;47.072;22.192;2023-06-10T09:53:12;99230.28;;;26.47;60.92
68634;BME280;55625;47.072;22.192;2023-06-10T09:55:39;99233.69;;;26.97;58.56
68634;BME280;55625;47.072;22.192;2023-06-10T09:58:06;99224.41;;;27.21;60.12
68634;BME280;55625;47.072;22.192;2023-06-10T10:00:34;99218.41;;;27.65;59.84
68634;BME280;55625;47.072;22.192;2023-06-10T10:03:00;99221.31;;;27.57;54.40
68634;BME280;55625;47.072;22.192;2023-06-10T10:05:27;99214.13;;;27.35;52.90
68634;BME280;55625;47.072;22.192;2023-06-10T10:07:53;99217.38;;;27.54;52.50
68634;BME280;55625;47.072;22.192;2023-06-10T10:10:22;99213.34;;;27.58;51.83
68634;BME280;55625;47.072;22.192;2023-06-10T10:12:55;99216.25;;;27.65;54.83
68634;BME280;55625;47.072;22.192;2023-06-10T10:15:22;99209.44;;;27.40;54.42
68634;BME280;55625;47.072;22.192;2023-06-10T10:18:07;99218.97;;;27.56;53.84
68634;BME280;55625;47.072;22.192;2023-06-10T10:20:45;99215.66;;;27.74;53.76
68634;BME280;55625;47.072;22.192;2023-06-10T10:23:14;99213.09;;;27.94;54.34
68634;BME280;55625;47.072;22.192;2023-06-10T10:25:43;99210.31;;;28.03;55.75
68634;BME280;55625;47.072;22.192;2023-06-10T10:28:13;99213.38;;;28.21;56.86
68634;BME280;55625;47.072;22.192;2023-06-10T10:30:53;99210.47;;;28.13;56.40
68634;BME280;55625;47.072;22.192;2023-06-10T10:33:26;99207.75;;;28.15;56.71
68634;BME280;55625;47.072;22.192;2023-06-10T10:35:55;99206.16;;;28.29;56.40
68634;BME280;55625;47.072;22.192;2023-06-10T10:38:21;99210.28;;;28.19;57.84
68634;BME280;55625;47.072;22.192;2023-06-10T10:40:47;99217.03;;;27.66;56.74
68634;BME280;55625;47.072;22.192;2023-06-10T10:43:14;99203.03;;;27.49;59.58
68634;BME280;55625;47.072;22.192;2023-06-10T10:45:41;99201.69;;;27.65;56.87
68634;BME280;55625;47.072;22.192;2023-06-10T10:48:09;99197.19;;;27.72;54.02
68634;BME280;55625;47.072;22.192;2023-06-10T10:50:38;99192.63;;;28.01;54.33
68634;BME280;55625;47.072;22.192;2023-06-10T10:53:05;99192.81;;;28.03;48.85
68634;BME280;55625;47.072;22.192;2023-06-10T10:55:32;99175.75;;;27.92;50.80
68634;BME280;55625;47.072;22.192;2023-06-10T10:58:07;99190.44;;;28.09;48.52
68634;BME280;55625;47.072;22.192;2023-06-10T11:00:45;99179.16;;;28.13;51.35
68634;BME280;55625;47.072;22.192;2023-06-10T11:03:16;99180.31;;;28.26;49.87
68634;BME280;55625;47.072;22.192;2023-06-10T11:05:48;99187.31;;;28.23;48.27
68634;BME280;55625;47.072;22.192;2023-06-10T11:08:15;99173.78;;;28.42;49.03
68634;BME280;55625;47.072;22.192;2023-06-10T11:11:17;99168.69;;;28.83;51.97
68634;BME280;55625;47.072;22.192;2023-06-10T11:16:42;99173.03;;;27.94;51.90
68634;BME280;55625;47.072;22.192;2023-06-10T11:19:09;99173.53;;;27.30;55.93
68634;BME280;55625;47.072;22.192;2023-06-10T11:22:17;99158.53;;;26.87;56.30
68634;BME280;55625;47.072;22.192;2023-06-10T11:24:51;99170.91;;;26.57;59.94
68634;BME280;55625;47.072;22.192;2023-06-10T11:27:24;99163.94;;;26.60;59.45
68634;BME280;55625;47.072;22.192;2023-06-10T11:30:19;99161.25;;;26.11;60.24
68634;BME280;55625;47.072;22.192;2023-06-10T11:32:50;99156.47;;;25.78;62.65
68634;BME280;55625;47.072;22.192;2023-06-10T11:35:19;99153.00;;;25.87;58.31
68634;BME280;55625;47.072;22.192;2023-06-10T11:37:47;99150.19;;;26.02;59.73
68634;BME280;55625;47.072;22.192;2023-06-10T11:40:13;99150.19;;;26.02;58.94
68634;BME280;55625;47.072;22.192;2023-06-10T11:42:41;99157.81;;;25.77;60.09
68634;BME280;55625;47.072;22.192;2023-06-10T11:45:08;99149.91;;;25.85;60.21
68634;BME280;55625;47.072;22.192;2023-06-10T11:47:34;99148.34;;;25.84;61.13
68634;BME280;55625;47.072;22.192;2023-06-10T11:50:00;99144.69;;;25.91;63.29
68634;BME280;55625;47.072;22.192;2023-06-10T11:52:30;99156.97;;;25.68;62.30
68634;BME280;55625;47.072;22.192;2023-06-10T11:55:03;99152.50;;;25.67;63.89
68634;BME280;55625;47.072;22.192;2023-06-10T11:57:34;99153.50;;;25.42;60.43
68634;BME280;55625;47.072;22.192;2023-06-10T12:00:07;99166.81;;;25.37;61.60
68634;BME280;55625;47.072;22.192;2023-06-10T12:02:34;99156.09;;;25.53;61.65
68634;BME280;55625;47.072;22.192;2023-06-10T12:05:14;99157.88;;;25.63;61.63
68634;BME280;55625;47.072;22.192;2023-06-10T12:07:40;99147.91;;;25.72;63.10
68634;BME280;55625;47.072;22.192;2023-06-10T12:10:06;99151.56;;;26.09;64.80
68634;BME280;55625;47.072;22.192;2023-06-10T12:12:35;99148.66;;;26.16;60.68
68634;BME280;55625;47.072;22.192;2023-06-10T12:15:02;99142.66;;;26.14;57.74
68634;BME280;55625;47.072;22.192;2023-06-10T12:19:56;99136.97;;;26.01;59.50
68634;BME280;55625;47.072;22.192;2023-06-10T12:22:23;99127.25;;;25.98;59.48
68634;BME280;55625;47.072;22.192;2023-06-10T12:25:02;99126.69;;;26.00;60.27
68634;BME280;55625;47.072;22.192;2023-06-10T12:27:30;99128.81;;;25.99;59.71
68634;BME280;55625;47.072;22.192;2023-06-10T12:29:58;99120.28;;;26.02;59.85
68634;BME280;55625;47.072;22.192;2023-06-10T12:32:45;99129.56;;;25.56;58.61
68634;BME280;55625;47.072;22.192;2023-06-10T12:35:22;99126.72;;;25.35;57.03
68634;BME280;55625;47.072;22.192;2023-06-10T12:38:03;99128.97;;;25.22;56.71
68634;BME280;55625;47.072;22.192;2023-06-10T12:40:40;99126.59;;;24.71;62.81
68634;BME280;55625;47.072;22.192;2023-06-10T12:43:10;99131.69;;;24.36;62.88
68634;BME280;55625;47.072;22.192;2023-06-10T12:45:39;99128.81;;;24.23;63.20
68634;BME280;55625;47.072;22.192;2023-06-10T12:48:22;99126.91;;;23.92;63.90
68634;BME280;55625;47.072;22.192;2023-06-10T12:50:57;99122.66;;;23.93;63.30
68634;BME280;55625;47.072;22.192;2023-06-10T12:53:25;99124.38;;;24.09;62.86
68634;BME280;55625;47.072;22.192;2023-06-10T12:55:54;99114.47;;;24.04;63.95
68634;BME280;55625;47.072;22.192;2023-06-10T12:58:23;99120.97;;;23.97;65.21